createdAt,value
2018-06-19T00:00:40.810Z,5.78
2018-06-19T00:03:13.981Z,9.10
2018-06-19T00:05:43.969Z,5.95
2018-06-19T00:08:17.197Z,13.60
2018-06-19T00:10:50.076Z,6.07
2018-06-19T00:13:21.563Z,8.15
2018-06-19T00:15:53.145Z,7.12
2018-06-19T00:18:28.972Z,9.68
2018-06-19T00:21:06.943Z,7.62
2018-06-19T00:23:40.047Z,10.45
2018-06-19T00:26:13.035Z,10.68
2018-06-19T00:28:45.883Z,8.73
2018-06-19T00:31:18.608Z,9.52
2018-06-19T00:33:52.519Z,12.90
2018-06-19T00:36:25.565Z,7.55
2018-06-19T00:38:57.700Z,10.30
2018-06-19T00:41:28.971Z,9.88
2018-06-19T00:44:03.500Z,8.35
2018-06-19T00:46:37.836Z,10.48
2018-06-19T00:49:07.836Z,10.07
2018-06-19T00:51:42.320Z,8.60
2018-06-19T00:54:12.576Z,8.80
2018-06-19T00:57:03.062Z,9.20
2018-06-19T00:59:36.101Z,14.25
2018-06-19T01:02:09.142Z,7.15
2018-06-19T01:04:39.075Z,7.00
2018-06-19T01:07:11.407Z,11.40
2018-06-19T01:09:45.924Z,7.12
2018-06-19T01:12:17.934Z,13.15
2018-06-19T01:14:52.165Z,8.32
2018-06-19T01:17:23.744Z,10.68
2018-06-19T01:19:55.396Z,12.13
2018-06-19T01:22:29.942Z,8.23
2018-06-19T01:25:02.031Z,11.02
2018-06-19T01:27:33.572Z,11.80
2018-06-19T01:30:06.750Z,19.02
2018-06-19T01:32:39.884Z,14.13
2018-06-19T01:35:13.337Z,12.07
2018-06-19T01:37:44.910Z,10.40
2018-06-19T01:40:20.092Z,14.65
2018-06-19T01:42:49.780Z,12.35
2018-06-19T01:45:24.280Z,12.95
2018-06-19T01:47:57.996Z,11.73
2018-06-19T01:50:29.657Z,12.05
2018-06-19T01:53:02.765Z,15.15
2018-06-19T01:55:34.309Z,21.10
2018-06-19T01:58:07.255Z,18.92
2018-06-19T02:00:40.603Z,13.20
2018-06-19T02:03:13.628Z,14.95
2018-06-19T02:05:46.711Z,16.60
2018-06-19T02:08:21.326Z,17.00
2018-06-19T02:10:54.493Z,14.98
2018-06-19T02:13:27.550Z,9.60
2018-06-19T02:15:59.128Z,13.70
2018-06-19T02:18:33.157Z,14.15
2018-06-19T02:21:05.898Z,23.77
2018-06-19T02:23:38.834Z,18.20
2018-06-19T02:26:10.385Z,14.05
2018-06-19T02:28:40.595Z,19.20
2018-06-19T02:31:10.775Z,22.90
2018-06-19T02:33:43.895Z,16.52
2018-06-19T02:36:15.260Z,17.25
2018-06-19T02:38:47.674Z,16.10
2018-06-19T02:41:19.915Z,18.92
2018-06-19T02:43:49.975Z,19.45
2018-06-19T02:46:22.931Z,19.52
2018-06-19T02:48:55.023Z,20.95
2018-06-19T02:51:29.762Z,19.33
2018-06-19T02:54:02.725Z,18.30
2018-06-19T02:56:37.199Z,22.62
2018-06-19T02:59:07.171Z,18.95
2018-06-19T03:01:41.832Z,18.87
2018-06-19T03:04:14.721Z,19.05
2018-06-19T03:06:48.975Z,20.30
2018-06-19T03:09:20.645Z,19.83
2018-06-19T03:11:51.109Z,24.30
2018-06-19T03:14:24.354Z,23.55
2018-06-19T03:16:55.964Z,21.67
2018-06-19T03:19:30.516Z,20.52
2018-06-19T03:22:02.254Z,23.20
2018-06-19T03:24:35.446Z,20.58
2018-06-19T03:27:10.251Z,27.90
2018-06-19T03:29:42.200Z,24.98
2018-06-19T03:32:15.238Z,21.52
2018-06-19T03:34:48.272Z,26.12
2018-06-19T03:37:21.664Z,27.15
2018-06-19T03:39:56.139Z,27.35
2018-06-19T03:42:28.092Z,23.12
2018-06-19T03:44:59.481Z,20.98
2018-06-19T03:47:33.975Z,24.58
2018-06-19T03:50:07.014Z,23.10
2018-06-19T03:52:37.037Z,25.48
2018-06-19T03:55:10.642Z,28.30
2018-06-19T03:57:43.925Z,22.92
2018-06-19T04:00:15.585Z,31.30
2018-06-19T04:02:48.788Z,31.35
2018-06-19T04:05:21.969Z,24.63
2018-06-19T04:07:54.894Z,29.65
2018-06-19T04:10:28.368Z,21.90
2018-06-19T04:13:02.840Z,29.73
2018-06-19T04:15:34.324Z,30.67
2018-06-19T04:18:07.812Z,27.25
2018-06-19T04:20:42.241Z,27.75
2018-06-19T04:23:15.179Z,22.15
2018-06-19T04:25:48.240Z,27.40
2018-06-19T04:28:19.764Z,25.88
2018-06-19T04:30:51.319Z,27.13
2018-06-19T04:33:23.352Z,24.35
2018-06-19T04:35:56.618Z,29.73
2018-06-19T04:38:31.316Z,24.67
2018-06-19T04:41:04.317Z,25.55
2018-06-19T04:43:38.910Z,27.10
2018-06-19T04:46:10.783Z,28.48
2018-06-19T04:48:43.896Z,29.48
2018-06-19T04:51:15.554Z,32.55
2018-06-19T04:53:47.364Z,27.42
2018-06-19T04:56:20.588Z,28.85
2018-06-19T04:58:52.830Z,32.28
2018-06-19T05:01:27.551Z,28.55
2018-06-19T05:04:00.832Z,28.77
2018-06-19T05:06:32.512Z,28.50
2018-06-19T05:09:04.352Z,25.33
2018-06-19T05:11:37.410Z,32.83
2018-06-19T05:14:09.205Z,30.52
2018-06-19T05:16:42.592Z,29.15
2018-06-19T05:19:15.654Z,32.85
2018-06-19T05:21:48.686Z,32.25
2018-06-19T05:24:20.244Z,37.10
2018-06-19T05:26:51.814Z,34.90
2018-06-19T05:29:24.842Z,38.10
2018-06-19T05:31:58.100Z,30.40
2018-06-19T05:34:31.197Z,36.17
2018-06-19T05:37:05.932Z,38.35
2018-06-19T05:39:38.334Z,32.45
2018-06-19T05:42:11.346Z,37.58
2018-06-19T05:44:46.398Z,37.70
2018-06-19T05:47:18.016Z,39.08
2018-06-19T05:49:51.145Z,33.47
2018-06-19T05:52:24.467Z,36.60
2018-06-19T05:54:57.518Z,40.47
2018-06-19T05:57:30.055Z,35.33
2018-06-19T06:00:01.591Z,38.40
2018-06-19T06:02:32.912Z,36.22
2018-06-19T06:05:05.914Z,34.80
2018-06-19T06:07:35.433Z,38.55
2018-06-19T06:10:07.217Z,34.20
2018-06-19T06:12:40.626Z,38.70
2018-06-19T06:15:13.849Z,34.42
2018-06-19T06:17:43.876Z,38.50
2018-06-19T06:20:18.583Z,41.30
2018-06-19T06:22:53.338Z,36.80
2018-06-19T06:25:25.258Z,42.67
2018-06-19T06:27:57.449Z,41.70
2018-06-19T06:30:28.259Z,36.20
2018-06-19T06:32:58.982Z,37.30
2018-06-19T06:35:29.121Z,41.92
2018-06-19T06:38:00.787Z,38.70
2018-06-19T06:40:33.869Z,33.40
2018-06-19T06:43:06.947Z,38.60
2018-06-19T06:45:40.289Z,30.00
2018-06-19T06:48:11.755Z,37.88
2018-06-19T06:50:44.875Z,37.53
2018-06-19T06:53:15.117Z,36.63
2018-06-19T06:55:45.437Z,31.98
2018-06-19T06:58:16.877Z,34.42
2018-06-19T07:00:46.921Z,33.50
2018-06-19T07:03:18.454Z,34.58
2018-06-19T07:05:53.539Z,32.20
2018-06-19T07:08:28.172Z,31.70
2018-06-19T07:10:58.224Z,28.40
2018-06-19T07:13:31.536Z,32.58
2018-06-19T07:16:05.884Z,31.33
2018-06-19T07:18:40.201Z,28.70
2018-06-19T07:21:10.201Z,38.67
2018-06-19T07:23:43.068Z,30.75
2018-06-19T07:26:17.643Z,32.55
2018-06-19T07:28:47.608Z,32.97
2018-06-19T07:31:18.098Z,34.90
2018-06-19T07:33:52.470Z,27.95
2018-06-19T07:36:25.711Z,36.33
2018-06-19T07:38:59.442Z,33.58
2018-06-19T07:41:32.316Z,36.55
2018-06-19T07:44:05.885Z,28.50
2018-06-19T07:46:40.302Z,30.42
2018-06-19T07:49:14.879Z,34.78
2018-06-19T07:51:48.056Z,31.70
2018-06-19T07:54:21.945Z,30.65
2018-06-19T07:56:52.368Z,41.42
2018-06-19T07:59:22.924Z,32.97
2018-06-19T08:01:55.503Z,34.70
2018-06-19T08:04:27.080Z,26.80
2018-06-19T08:07:01.612Z,34.10
2018-06-19T08:09:33.235Z,28.80
2018-06-19T08:12:05.401Z,28.95
2018-06-19T08:14:38.583Z,29.17
2018-06-19T08:17:11.714Z,31.62
2018-06-19T08:19:41.708Z,26.83
2018-06-19T08:22:16.107Z,25.25
2018-06-19T08:24:46.238Z,26.58
2018-06-19T08:27:20.783Z,26.33
2018-06-19T08:29:54.635Z,24.10
2018-06-19T08:32:27.687Z,19.70
2018-06-19T08:35:01.157Z,27.55
2018-06-19T08:37:35.593Z,27.05
2018-06-19T08:40:07.025Z,24.60
2018-06-19T08:42:41.800Z,22.10
2018-06-19T08:45:14.610Z,23.65
2018-06-19T08:47:46.059Z,27.10
2018-06-19T08:50:19.434Z,23.12
2018-06-19T08:52:53.011Z,19.55
2018-06-19T08:55:24.465Z,25.17
2018-06-19T08:57:56.255Z,23.27
2018-06-19T09:00:29.420Z,23.50
2018-06-19T09:03:04.038Z,24.30
2018-06-19T09:05:35.495Z,21.37
2018-06-19T09:08:11.304Z,21.60
2018-06-19T09:10:44.384Z,23.12
2018-06-19T09:13:16.179Z,25.42
2018-06-19T09:15:47.635Z,20.10
2018-06-19T09:18:19.173Z,20.65
2018-06-19T09:20:51.382Z,17.10
2018-06-19T09:23:25.635Z,19.25
2018-06-19T09:25:57.135Z,18.70
2018-06-19T09:28:30.070Z,21.25
2018-06-19T09:31:05.020Z,19.58
2018-06-19T09:33:38.029Z,24.35
2018-06-19T09:36:13.432Z,18.20
2018-06-19T09:38:46.473Z,22.98
2018-06-19T09:41:19.606Z,18.40
2018-06-19T09:43:53.968Z,21.90
2018-06-19T09:46:23.960Z,16.55
2018-06-19T09:48:57.091Z,25.75
2018-06-19T09:51:28.533Z,28.75
2018-06-19T09:54:03.069Z,19.23
2018-06-19T09:56:36.004Z,19.85
2018-06-19T09:59:10.629Z,17.02
2018-06-19T10:01:45.321Z,15.75
2018-06-19T10:04:19.761Z,19.08
2018-06-19T10:06:51.238Z,15.60
2018-06-19T10:09:24.485Z,17.37
2018-06-19T10:11:57.549Z,14.50
2018-06-19T10:14:27.641Z,12.57
2018-06-19T10:16:59.615Z,14.38
2018-06-19T10:19:31.142Z,15.02
2018-06-19T10:22:02.748Z,14.60
2018-06-19T10:24:34.541Z,16.73
2018-06-19T10:27:05.988Z,17.80
2018-06-19T10:29:39.204Z,16.17
2018-06-19T10:32:12.383Z,16.90
2018-06-19T10:34:43.839Z,18.02
2018-06-19T10:37:18.158Z,13.38
2018-06-19T10:39:50.134Z,16.42
2018-06-19T10:42:21.608Z,17.40
2018-06-19T10:44:54.627Z,15.00
2018-06-19T10:47:27.807Z,14.87
2018-06-19T10:50:02.752Z,15.98
2018-06-19T10:52:34.761Z,14.68
2018-06-19T10:55:06.272Z,12.13
2018-06-19T10:57:39.497Z,17.33
2018-06-19T11:00:10.972Z,14.27
2018-06-19T11:02:43.884Z,8.63
2018-06-19T11:05:16.938Z,7.70
2018-06-19T11:07:48.473Z,5.22
2018-06-19T11:10:18.512Z,9.82
2018-06-19T11:12:52.667Z,5.53
2018-06-19T11:15:25.526Z,8.20
2018-06-19T11:18:00.510Z,5.85
2018-06-19T11:20:31.960Z,7.43
2018-06-19T11:23:05.955Z,5.32
2018-06-19T11:25:38.968Z,6.37
2018-06-19T11:28:13.616Z,5.97
2018-06-19T11:30:45.278Z,6.65
2018-06-19T11:33:18.271Z,4.53
2018-06-19T11:35:50.164Z,7.12
2018-06-19T11:38:21.780Z,8.60
2018-06-19T11:40:52.549Z,7.93
2018-06-19T11:43:24.396Z,6.80
2018-06-19T11:45:55.803Z,7.65
2018-06-19T11:48:26.333Z,4.47
2018-06-19T11:50:59.588Z,4.25
2018-06-19T11:53:30.996Z,8.10
2018-06-19T11:56:02.661Z,7.32
2018-06-19T11:58:34.316Z,7.20
2018-06-19T12:01:07.110Z,6.93
2018-06-19T12:03:38.772Z,7.18
2018-06-19T12:06:14.339Z,8.68
2018-06-19T12:08:49.307Z,7.82
2018-06-19T12:11:19.319Z,8.43
2018-06-19T12:13:52.505Z,6.87
2018-06-19T12:16:26.899Z,14.82
2018-06-19T12:18:56.862Z,12.25
2018-06-19T12:21:31.213Z,7.20
2018-06-19T12:24:02.642Z,9.13
2018-06-19T12:26:34.165Z,9.85
2018-06-19T12:29:05.623Z,8.23
2018-06-19T12:31:37.111Z,11.17
2018-06-19T12:34:08.528Z,16.98
2018-06-19T12:36:44.448Z,10.88
2018-06-19T12:39:17.303Z,12.40
2018-06-19T12:41:50.620Z,10.02
2018-06-19T12:44:22.224Z,12.15
2018-06-19T12:46:53.720Z,9.35
2018-06-19T12:50:18.775Z,7.12
2018-06-19T12:53:26.201Z,8.50
2018-06-19T12:56:21.540Z,10.23
2018-06-19T12:58:56.221Z,8.95
2018-06-19T13:01:28.184Z,12.25
2018-06-19T13:04:35.031Z,7.00
2018-06-19T13:07:08.351Z,9.65
2018-06-19T13:09:41.398Z,7.50
2018-06-19T13:12:47.813Z,6.30
2018-06-19T13:15:19.789Z,9.32
2018-06-19T13:18:27.658Z,8.23
2018-06-19T13:21:00.597Z,9.25
2018-06-19T13:23:32.266Z,7.20
2018-06-19T13:26:05.799Z,8.25
2018-06-19T13:29:27.504Z,10.80
2018-06-19T13:31:57.356Z,9.68
2018-06-19T13:34:31.794Z,7.22
2018-06-19T13:37:06.348Z,10.35
2018-06-19T13:39:40.639Z,10.32
2018-06-19T13:42:48.109Z,9.05
2018-06-19T13:45:21.022Z,10.65
2018-06-19T13:47:53.391Z,9.48
2018-06-19T13:50:25.127Z,11.75
2018-06-19T13:52:56.761Z,7.87
2018-06-19T13:56:07.476Z,7.30
2018-06-19T13:58:41.205Z,10.68
2018-06-19T14:01:14.195Z,8.05
2018-06-19T14:03:47.201Z,7.37
2018-06-19T14:06:22.301Z,8.52
2018-06-19T14:09:08.021Z,8.43
2018-06-19T14:12:31.642Z,9.48
2018-06-19T14:15:06.448Z,10.18
2018-06-19T14:17:37.996Z,9.80
2018-06-19T14:20:11.159Z,13.07
2018-06-19T14:22:44.149Z,11.55
2018-06-19T14:25:16.702Z,11.77
2018-06-19T14:27:49.753Z,12.10
2018-06-19T14:30:22.844Z,12.88
2018-06-19T14:32:55.353Z,11.23
2018-06-19T14:35:28.300Z,14.45
2018-06-19T14:38:02.753Z,10.93
2018-06-19T14:40:32.727Z,12.40
2018-06-19T14:43:04.488Z,13.57
2018-06-19T14:45:38.943Z,13.13
2018-06-19T14:48:10.343Z,11.95
2018-06-19T14:50:41.737Z,13.65
2018-06-19T14:53:14.950Z,11.05
2018-06-19T14:55:46.442Z,11.10
2018-06-19T14:58:19.537Z,11.10
2018-06-19T15:00:52.522Z,14.60
2018-06-19T15:03:24.779Z,12.00
2018-06-19T15:05:59.155Z,22.70
2018-06-19T15:08:31.608Z,12.27
2018-06-19T15:11:05.944Z,14.48
2018-06-19T15:13:38.289Z,14.27
2018-06-19T15:16:09.744Z,12.73
2018-06-19T15:18:41.496Z,9.40
2018-06-19T15:21:13.935Z,8.77
2018-06-19T15:23:47.864Z,12.73
2018-06-19T15:26:21.138Z,11.60
2018-06-19T15:28:53.117Z,14.77
2018-06-19T15:31:26.135Z,12.10
2018-06-19T15:33:59.723Z,11.73
2018-06-19T15:36:31.254Z,12.35
2018-06-19T15:39:04.535Z,10.23
2018-06-19T15:41:38.203Z,10.95
2018-06-19T15:44:12.784Z,9.73
2018-06-19T15:46:47.348Z,10.45
2018-06-19T15:49:20.468Z,8.85
2018-06-19T15:51:53.511Z,11.80
2018-06-19T15:54:26.418Z,10.20
2018-06-19T15:56:57.935Z,9.60
2018-06-19T15:59:29.917Z,11.00
2018-06-19T16:02:04.594Z,10.50
2018-06-19T16:04:39.143Z,12.93
2018-06-19T16:07:12.289Z,13.02
2018-06-19T16:09:42.336Z,13.50
2018-06-19T16:12:16.274Z,10.85
2018-06-19T16:14:49.140Z,11.68
2018-06-19T16:17:23.609Z,9.73
2018-06-19T16:19:56.573Z,11.70
2018-06-19T16:22:29.787Z,15.88
2018-06-19T16:25:01.263Z,9.63
2018-06-19T16:27:32.761Z,11.00
2018-06-19T16:30:04.689Z,10.85
2018-06-19T16:32:37.776Z,12.40
2018-06-19T16:35:10.867Z,10.05
2018-06-19T16:37:42.860Z,38.35
2018-06-19T16:40:15.912Z,26.60
2018-06-19T16:42:49.420Z,19.87
2018-06-19T16:45:23.628Z,23.98
2018-06-19T16:47:53.214Z,12.02
2018-06-19T16:50:24.567Z,25.40
2018-06-19T16:52:57.695Z,13.48
2018-06-19T16:55:30.698Z,10.15
2018-06-19T16:58:02.244Z,15.18
2018-06-19T17:00:36.669Z,13.95
2018-06-19T17:03:11.129Z,49.88
2018-06-19T17:05:44.387Z,40.30
2018-06-19T17:08:15.766Z,70.97
2018-06-19T17:10:49.005Z,85.30
2018-06-19T17:13:21.816Z,141.85
2018-06-19T17:15:54.719Z,81.03
2018-06-19T17:18:27.746Z,44.55
2018-06-19T17:20:59.961Z,94.87
2018-06-19T17:23:33.142Z,97.07
2018-06-19T17:26:04.267Z,46.83
2018-06-19T17:28:35.812Z,217.98
2018-06-19T17:31:07.175Z,30.02
2018-06-19T17:33:40.155Z,32.83
2018-06-19T17:36:11.696Z,109.03
2018-06-19T17:38:45.960Z,9.35
2018-06-19T17:41:18.557Z,8.88
2018-06-19T17:43:51.702Z,8.63
2018-06-19T17:46:25.266Z,7.37
2018-06-19T17:48:58.466Z,13.95
2018-06-19T17:51:32.403Z,9.30
2018-06-19T17:54:05.379Z,8.75
2018-06-19T17:56:38.485Z,6.93
2018-06-19T17:59:09.901Z,8.05
2018-06-19T18:01:41.370Z,7.70
2018-06-19T18:04:12.796Z,11.00
2018-06-19T18:06:47.517Z,12.93
2018-06-19T18:09:23.773Z,7.40
2018-06-19T18:11:54.327Z,7.90
2018-06-19T18:14:27.803Z,8.80
2018-06-19T18:16:58.463Z,6.95
2018-06-19T18:19:29.865Z,6.07
2018-06-19T18:22:04.540Z,4.93
2018-06-19T18:24:39.097Z,5.97
2018-06-19T18:27:12.158Z,10.32
2018-06-19T18:29:44.977Z,7.10
2018-06-19T18:32:18.423Z,5.57
2018-06-19T18:34:51.316Z,8.45
2018-06-19T18:37:26.039Z,8.77
2018-06-19T18:39:57.432Z,5.50
2018-06-19T18:42:31.939Z,6.87
2018-06-19T18:45:03.160Z,7.78
2018-06-19T18:47:34.599Z,6.28
2018-06-19T18:50:06.020Z,9.40
2018-06-19T18:52:39.143Z,8.60
2018-06-19T18:55:11.982Z,6.28
2018-06-19T18:57:45.092Z,8.90
2018-06-19T19:00:16.566Z,7.18
2018-06-19T19:02:48.028Z,8.68
2018-06-19T19:05:22.832Z,8.50
2018-06-19T19:07:54.296Z,11.02
2018-06-19T19:10:43.670Z,10.95
2018-06-19T19:13:18.171Z,10.70
2018-06-19T19:16:05.627Z,13.48
2018-06-19T19:18:54.807Z,19.45
2018-06-19T19:21:25.586Z,19.87
2018-06-19T19:23:57.078Z,14.77
2018-06-19T19:26:44.804Z,18.50
2018-06-19T19:29:33.877Z,34.47
2018-06-19T19:32:05.729Z,44.20
2018-06-19T19:34:38.621Z,47.42
2018-06-19T19:37:26.139Z,24.87
2018-06-19T19:39:59.201Z,17.37
2018-06-19T19:42:32.442Z,22.40
2018-06-19T19:45:07.023Z,26.20
2018-06-19T19:47:56.413Z,13.50
2018-06-19T19:50:29.375Z,11.45
2018-06-19T19:53:02.505Z,9.93
2018-06-19T19:55:35.349Z,34.00
2018-06-19T19:58:24.543Z,15.95
2018-06-19T20:00:56.297Z,12.40
2018-06-19T20:03:30.753Z,16.02
2018-06-19T20:06:03.870Z,12.80
2018-06-19T20:08:35.237Z,12.85
2018-06-19T20:11:09.604Z,14.32
2018-06-19T20:13:40.999Z,24.70
2018-06-19T20:16:15.467Z,26.95
2018-06-19T20:18:49.828Z,24.70
2018-06-19T20:21:21.704Z,27.37
2018-06-19T20:23:54.558Z,25.35
2018-06-19T20:26:29.363Z,31.67
2018-06-19T20:29:03.883Z,30.10
2018-06-19T20:31:38.249Z,32.35
2018-06-19T20:34:08.399Z,68.30
2018-06-19T20:36:42.841Z,69.07
2018-06-19T20:39:17.203Z,66.32
2018-06-19T20:41:47.697Z,68.15
2018-06-19T20:44:19.246Z,77.43
2018-06-19T20:46:53.716Z,63.33
2018-06-19T20:49:28.098Z,109.53
2018-06-19T20:52:00.035Z,93.07
2018-06-19T20:54:34.898Z,96.12
2018-06-19T20:57:06.296Z,72.93
2018-06-19T20:59:37.727Z,59.30
2018-06-19T21:02:09.173Z,54.25
2018-06-19T21:04:44.232Z,68.78
2018-06-19T21:07:15.747Z,46.35
2018-06-19T21:09:48.678Z,48.35
2018-06-19T21:12:20.457Z,31.60
2018-06-19T21:14:54.943Z,51.95
2018-06-19T21:17:25.102Z,20.48
2018-06-19T21:19:58.124Z,21.98
2018-06-19T21:22:32.860Z,21.98
2018-06-19T21:25:04.729Z,19.55
2018-06-19T21:27:39.670Z,14.05
2018-06-19T21:30:14.297Z,16.55
2018-06-19T21:32:46.355Z,18.83
2018-06-19T21:35:19.474Z,29.27
2018-06-19T21:37:52.282Z,27.75
2018-06-19T21:40:22.301Z,28.20
2018-06-19T21:42:56.874Z,36.88
2018-06-19T21:45:31.329Z,36.40
2018-06-19T21:48:02.974Z,34.60
2018-06-19T21:50:36.467Z,43.67
2018-06-19T21:53:09.368Z,40.88
2018-06-19T21:55:42.386Z,38.58
2018-06-19T21:58:15.282Z,50.00
2018-06-19T22:00:48.159Z,51.00
2018-06-19T22:03:21.654Z,41.33
2018-06-19T22:05:56.422Z,26.02
2018-06-19T22:08:46.827Z,37.47
2018-06-19T22:11:21.166Z,31.95
2018-06-19T22:13:54.654Z,27.70
2018-06-19T22:16:28.142Z,31.65
2018-06-19T22:18:59.724Z,33.17
2018-06-19T22:21:31.333Z,54.20
2018-06-19T22:24:05.913Z,103.05
2018-06-19T22:26:37.974Z,139.62
2018-06-19T22:29:11.059Z,90.35
2018-06-19T22:31:45.437Z,53.58
2018-06-19T22:34:19.921Z,42.62
2018-06-19T22:36:53.097Z,37.47
2018-06-19T22:39:27.728Z,46.65
2018-06-19T22:42:00.633Z,51.40
2018-06-19T22:44:33.541Z,42.50
2018-06-19T22:47:03.466Z,32.33
2018-06-19T22:49:36.692Z,42.65
2018-06-19T22:52:09.546Z,46.90
2018-06-19T22:54:42.655Z,35.53
2018-06-19T22:57:15.621Z,46.80
2018-06-19T22:59:49.075Z,86.50
2018-06-19T23:02:20.824Z,54.60
2018-06-19T23:04:52.559Z,61.17
2018-06-19T23:07:24.217Z,54.15
2018-06-19T23:09:56.356Z,65.40
2018-06-19T23:12:29.343Z,91.53
2018-06-19T23:15:02.310Z,98.82
2018-06-19T23:17:36.905Z,80.38
2018-06-19T23:20:08.515Z,57.90
2018-06-19T23:22:43.010Z,63.20
2018-06-19T23:25:16.471Z,58.58
2018-06-19T23:27:49.362Z,48.80
2018-06-19T23:30:22.449Z,47.90
2018-06-19T23:32:53.876Z,43.95
2018-06-19T23:35:23.872Z,43.85
2018-06-19T23:37:58.531Z,50.58
2018-06-19T23:40:29.911Z,58.35
2018-06-19T23:43:01.347Z,53.65
2018-06-19T23:45:32.793Z,69.18
2018-06-19T23:48:05.916Z,49.45
2018-06-19T23:50:37.774Z,54.80
2018-06-19T23:53:09.250Z,57.30
2018-06-19T23:55:43.694Z,83.85
2018-06-19T23:58:18.013Z,52.72
